createdAt,value
2023-08-13T00:00:09.120Z,23.23
2023-08-13T00:01:09.068Z,23.29
2023-08-13T00:02:09.068Z,23.24
2023-08-13T00:03:30.189Z,23.27
2023-08-13T00:04:08.974Z,23.24
2023-08-13T00:05:08.875Z,23.29
2023-08-13T00:06:08.821Z,23.29
2023-08-13T00:07:08.773Z,23.27
2023-08-13T00:08:08.736Z,23.24
2023-08-13T00:09:08.677Z,23.31
2023-08-13T00:10:08.630Z,23.24
2023-08-13T00:11:08.574Z,23.29
2023-08-13T00:12:08.530Z,23.27
2023-08-13T00:13:08.495Z,23.26
2023-08-13T00:14:08.447Z,23.24
2023-08-13T00:15:08.388Z,23.29
2023-08-13T00:16:08.364Z,23.24
2023-08-13T00:17:08.297Z,23.26
2023-08-13T00:18:08.317Z,23.24
2023-08-13T00:19:08.195Z,23.17
2023-08-13T00:20:08.146Z,23.22
2023-08-13T00:21:08.114Z,23.26
2023-08-13T00:22:08.437Z,23.20
2023-08-13T00:23:08.003Z,23.12
2023-08-13T00:24:07.952Z,23.14
2023-08-13T00:25:07.905Z,23.15
2023-08-13T00:26:07.859Z,23.20
2023-08-13T00:27:07.810Z,23.12
2023-08-13T00:28:21.634Z,23.20
2023-08-13T00:29:07.708Z,23.15
2023-08-13T00:30:07.689Z,23.14
2023-08-13T00:31:07.679Z,23.12
2023-08-13T00:32:07.654Z,23.09
2023-08-13T00:33:07.571Z,23.19
2023-08-13T00:34:07.466Z,23.15
2023-08-13T00:35:07.426Z,23.12
2023-08-13T00:36:07.368Z,23.19
2023-08-13T00:37:07.318Z,23.20
2023-08-13T00:38:07.272Z,23.09
2023-08-13T00:39:07.220Z,23.19
2023-08-13T00:40:07.182Z,23.17
2023-08-13T00:41:07.125Z,23.20
2023-08-13T00:42:07.075Z,23.14
2023-08-13T00:43:07.028Z,23.19
2023-08-13T00:44:06.983Z,23.24
2023-08-13T00:45:06.931Z,23.20
2023-08-13T00:46:06.917Z,23.15
2023-08-13T00:47:06.848Z,23.12
2023-08-13T00:48:06.853Z,23.11
2023-08-13T00:49:06.754Z,23.15
2023-08-13T00:50:06.776Z,23.08
2023-08-13T00:51:06.644Z,23.17
2023-08-13T00:52:06.604Z,23.12
2023-08-13T00:53:06.543Z,23.19
2023-08-13T00:54:06.501Z,23.12
2023-08-13T00:55:06.450Z,23.20
2023-08-13T00:56:06.410Z,23.17
2023-08-13T00:57:06.348Z,23.14
2023-08-13T00:58:06.307Z,23.14
2023-08-13T00:59:06.251Z,23.12
2023-08-13T01:00:06.212Z,23.17
2023-08-13T01:01:06.204Z,23.14
2023-08-13T01:02:06.112Z,23.14
2023-08-13T01:03:06.119Z,23.12
2023-08-13T01:04:06.045Z,23.09
2023-08-13T01:05:05.968Z,23.14
2023-08-13T01:06:05.914Z,23.12
2023-08-13T01:07:05.866Z,23.14
2023-08-13T01:08:05.821Z,23.15
2023-08-13T01:09:05.770Z,23.22
2023-08-13T01:10:05.732Z,23.07
2023-08-13T01:11:05.669Z,23.09
2023-08-13T01:12:05.626Z,23.07
2023-08-13T01:13:05.580Z,23.09
2023-08-13T01:14:05.527Z,23.09
2023-08-13T01:15:05.476Z,23.11
2023-08-13T01:16:05.468Z,23.12
2023-08-13T01:17:05.382Z,23.12
2023-08-13T01:18:05.395Z,23.17
2023-08-13T01:19:05.317Z,23.08
2023-08-13T01:20:05.233Z,23.07
2023-08-13T01:21:05.183Z,23.17
2023-08-13T01:22:05.140Z,23.05
2023-08-13T01:23:05.087Z,23.08
2023-08-13T01:24:05.046Z,23.08
2023-08-13T01:25:04.993Z,23.11
2023-08-13T01:26:04.940Z,23.15
2023-08-13T01:27:04.891Z,23.15
2023-08-13T01:28:04.845Z,23.07
2023-08-13T01:29:04.794Z,23.14
2023-08-13T01:30:04.746Z,23.02
2023-08-13T01:31:04.700Z,23.05
2023-08-13T01:32:04.664Z,23.07
2023-08-13T01:33:04.646Z,23.07
2023-08-13T01:34:04.582Z,23.02
2023-08-13T01:35:04.515Z,23.04
2023-08-13T01:36:04.461Z,23.05
2023-08-13T01:37:04.405Z,23.07
2023-08-13T01:38:04.360Z,23.05
2023-08-13T01:39:04.301Z,23.05
2023-08-13T01:40:04.308Z,23.07
2023-08-13T01:41:04.206Z,23.09
2023-08-13T01:42:04.160Z,23.05
2023-08-13T01:43:04.118Z,23.01
2023-08-13T01:44:04.064Z,23.05
2023-08-13T01:45:04.012Z,23.05
2023-08-13T01:46:04.002Z,23.01
2023-08-13T01:47:03.920Z,23.05
2023-08-13T01:48:03.906Z,23.05
2023-08-13T01:49:03.822Z,22.97
2023-08-13T01:50:03.781Z,23.07
2023-08-13T01:51:03.746Z,23.09
2023-08-13T01:52:03.682Z,22.99
2023-08-13T01:53:03.643Z,23.05
2023-08-13T01:54:03.576Z,23.04
2023-08-13T01:55:03.534Z,23.08
2023-08-13T01:56:03.483Z,22.99
2023-08-13T01:57:03.435Z,23.05
2023-08-13T01:58:03.384Z,23.08
2023-08-13T01:59:03.337Z,23.04
2023-08-13T02:00:03.286Z,23.04
2023-08-13T02:01:03.260Z,23.05
2023-08-13T02:02:03.209Z,23.04
2023-08-13T02:03:03.189Z,23.04
2023-08-13T02:04:03.089Z,23.02
2023-08-13T02:05:03.099Z,23.05
2023-08-13T02:06:02.993Z,23.04
2023-08-13T02:07:02.986Z,23.02
2023-08-13T02:08:02.896Z,23.04
2023-08-13T02:09:02.856Z,23.02
2023-08-13T02:10:02.819Z,23.07
2023-08-13T02:11:02.764Z,23.02
2023-08-13T02:12:02.716Z,23.05
2023-08-13T02:13:02.659Z,23.05
2023-08-13T02:14:02.605Z,23.04
2023-08-13T02:15:02.570Z,22.99
2023-08-13T02:16:02.529Z,22.99
2023-08-13T02:17:02.467Z,23.05
2023-08-13T02:18:02.444Z,23.07
2023-08-13T02:19:02.374Z,23.01
2023-08-13T02:20:02.318Z,22.96
2023-08-13T02:21:02.268Z,23.02
2023-08-13T02:22:02.218Z,23.02
2023-08-13T02:23:02.185Z,23.04
2023-08-13T02:24:02.127Z,23.01
2023-08-13T02:25:02.095Z,23.05
2023-08-13T02:26:02.025Z,22.93
2023-08-13T02:27:01.974Z,22.97
2023-08-13T02:28:01.936Z,23.01
2023-08-13T02:29:01.883Z,22.99
2023-08-13T02:30:01.858Z,23.01
2023-08-13T02:31:01.831Z,23.02
2023-08-13T02:32:01.728Z,22.96
2023-08-13T02:33:01.832Z,22.99
2023-08-13T02:35:01.614Z,22.97
2023-08-13T02:36:02.207Z,23.04
2023-08-13T02:37:01.538Z,23.04
2023-08-13T02:38:01.465Z,22.97
2023-08-13T02:39:01.419Z,22.92
2023-08-13T02:40:01.374Z,22.96
2023-08-13T02:41:22.309Z,22.94
2023-08-13T02:42:01.274Z,22.99
2023-08-13T02:43:01.222Z,22.96
2023-08-13T02:44:01.176Z,22.93
2023-08-13T02:45:01.122Z,22.97
2023-08-13T02:46:01.092Z,22.94
2023-08-13T02:47:22.021Z,22.97
2023-08-13T02:48:01.034Z,22.97
2023-08-13T02:49:00.928Z,22.97
2023-08-13T02:50:00.893Z,22.92
2023-08-13T02:51:00.829Z,22.93
2023-08-13T02:52:00.779Z,22.94
2023-08-13T02:53:36.265Z,22.96
2023-08-13T02:54:00.685Z,22.94
2023-08-13T02:55:00.635Z,22.94
2023-08-13T02:56:00.615Z,22.94
2023-08-13T02:57:00.565Z,22.94
2023-08-13T02:59:21.433Z,22.96
2023-08-13T03:00:00.417Z,22.90
2023-08-13T03:01:00.372Z,22.94
2023-08-13T03:02:00.328Z,22.94
2023-08-13T03:03:00.373Z,22.93
2023-08-13T03:04:00.296Z,22.92
2023-08-13T03:05:21.146Z,22.94
2023-08-13T03:06:00.678Z,22.93
2023-08-13T03:07:00.044Z,22.90
2023-08-13T03:07:59.994Z,23.01
2023-08-13T03:08:59.947Z,22.92
2023-08-13T03:09:59.899Z,22.93
2023-08-13T03:11:20.854Z,22.92
2023-08-13T03:11:59.804Z,22.90
2023-08-13T03:12:59.752Z,22.92
2023-08-13T03:13:59.710Z,22.92
2023-08-13T03:14:59.656Z,23.01
2023-08-13T03:15:59.621Z,22.90
2023-08-13T03:17:20.564Z,22.96
2023-08-13T03:17:59.531Z,22.93
2023-08-13T03:19:00.195Z,22.94
2023-08-13T03:19:59.413Z,22.97
2023-08-13T03:20:59.376Z,22.97
2023-08-13T03:21:59.319Z,22.93
2023-08-13T03:23:20.290Z,22.94
2023-08-13T03:23:59.231Z,22.93
2023-08-13T03:24:59.173Z,22.89
2023-08-13T03:26:13.771Z,22.90
2023-08-13T03:26:59.072Z,22.89
2023-08-13T03:27:59.027Z,22.89
2023-08-13T03:29:19.984Z,22.97
2023-08-13T03:29:58.915Z,22.92
2023-08-13T03:30:58.882Z,22.93
2023-08-13T03:31:58.871Z,22.94
2023-08-13T03:32:58.794Z,22.93
2023-08-13T03:33:58.722Z,22.93
2023-08-13T03:35:19.668Z,22.92
2023-08-13T03:36:04.261Z,22.89
2023-08-13T03:36:58.582Z,22.92
2023-08-13T03:37:58.542Z,22.89
2023-08-13T03:38:58.493Z,22.90
2023-08-13T03:39:58.432Z,22.90
2023-08-13T03:41:19.382Z,22.89
2023-08-13T03:41:58.342Z,22.92
2023-08-13T03:42:58.293Z,22.90
2023-08-13T03:43:58.244Z,22.89
2023-08-13T03:44:58.196Z,22.86
2023-08-13T03:45:58.187Z,22.84
2023-08-13T03:47:19.105Z,22.86
2023-08-13T03:47:58.116Z,22.87
2023-08-13T03:48:58.008Z,22.83
2023-08-13T03:49:57.953Z,22.93
2023-08-13T03:50:57.907Z,22.87
2023-08-13T03:51:57.853Z,22.87
2023-08-13T03:53:18.799Z,22.84
2023-08-13T03:53:57.764Z,22.87
2023-08-13T03:54:57.713Z,22.87
2023-08-13T03:55:57.658Z,22.83
2023-08-13T03:56:57.648Z,22.87
2023-08-13T03:57:57.569Z,22.93
2023-08-13T03:59:18.533Z,22.89
2023-08-13T03:59:57.462Z,22.86
2023-08-13T04:00:57.425Z,22.86
2023-08-13T04:01:57.450Z,22.77
2023-08-13T04:02:59.653Z,22.86
2023-08-13T04:03:57.330Z,22.82
2023-08-13T04:05:18.225Z,22.86
2023-08-13T04:05:57.743Z,22.84
2023-08-13T04:06:57.133Z,22.84
2023-08-13T04:07:57.092Z,22.82
2023-08-13T04:08:57.034Z,22.87
2023-08-13T04:09:56.973Z,22.84
2023-08-13T04:11:17.921Z,22.84
2023-08-13T04:11:56.880Z,22.86
2023-08-13T04:12:56.837Z,22.84
2023-08-13T04:13:56.800Z,22.84
2023-08-13T04:14:56.742Z,22.87
2023-08-13T04:15:56.712Z,22.77
2023-08-13T04:17:17.643Z,22.89
2023-08-13T04:17:56.675Z,22.84
2023-08-13T04:18:57.210Z,22.82
2023-08-13T04:19:58.236Z,22.86
2023-08-13T04:20:56.442Z,22.82
2023-08-13T04:21:56.415Z,22.83
2023-08-13T04:23:17.337Z,22.86
2023-08-13T04:23:56.285Z,22.89
2023-08-13T04:24:56.237Z,22.80
2023-08-13T04:25:56.189Z,22.84
2023-08-13T04:26:56.146Z,22.82
2023-08-13T04:27:56.092Z,22.84
2023-08-13T04:29:17.039Z,22.83
2023-08-13T04:29:56.000Z,22.84
2023-08-13T04:30:55.947Z,22.80
2023-08-13T04:31:55.898Z,22.89
2023-08-13T04:32:55.898Z,22.82
2023-08-13T04:33:55.801Z,22.78
2023-08-13T04:35:16.773Z,22.83
2023-08-13T04:35:58.280Z,22.78
2023-08-13T04:36:55.661Z,22.78
2023-08-13T04:37:55.640Z,22.84
2023-08-13T04:38:56.849Z,22.78
2023-08-13T04:39:55.522Z,22.75
2023-08-13T04:41:16.463Z,22.83
2023-08-13T04:41:55.414Z,22.80
2023-08-13T04:42:55.376Z,22.84
2023-08-13T04:43:55.324Z,22.82
2023-08-13T04:44:55.280Z,22.80
2023-08-13T04:45:55.292Z,22.83
2023-08-13T04:47:16.176Z,22.84
2023-08-13T04:47:55.160Z,22.75
2023-08-13T04:48:55.077Z,22.75
2023-08-13T04:49:55.028Z,22.78
2023-08-13T04:50:54.977Z,22.74
2023-08-13T04:51:54.924Z,22.75
2023-08-13T04:53:15.872Z,22.78
2023-08-13T04:53:54.835Z,22.75
2023-08-13T04:54:54.784Z,22.71
2023-08-13T04:56:15.721Z,22.84
2023-08-13T04:56:54.676Z,22.72
2023-08-13T04:58:15.623Z,22.82
2023-08-13T04:58:54.585Z,22.71
2023-08-13T04:59:54.533Z,22.82
2023-08-13T05:00:54.524Z,22.77
2023-08-13T05:01:54.444Z,22.75
2023-08-13T05:02:54.402Z,22.68
2023-08-13T05:04:15.415Z,22.77
2023-08-13T05:04:54.307Z,22.80
2023-08-13T05:05:54.251Z,22.74
2023-08-13T05:06:54.192Z,22.77
2023-08-13T05:07:54.150Z,22.74
2023-08-13T05:08:54.095Z,22.74
2023-08-13T05:10:15.057Z,22.77
2023-08-13T05:10:53.996Z,22.82
2023-08-13T05:11:54.000Z,22.75
2023-08-13T05:12:53.898Z,22.72
2023-08-13T05:13:53.852Z,22.78
2023-08-13T05:14:53.804Z,22.83
2023-08-13T05:16:14.767Z,22.72
2023-08-13T05:16:53.701Z,22.78
2023-08-13T05:17:53.679Z,22.77
2023-08-13T05:18:53.606Z,22.78
2023-08-13T05:19:53.580Z,22.75
2023-08-13T05:20:53.513Z,22.82
2023-08-13T05:22:14.717Z,22.72
2023-08-13T05:22:53.425Z,22.75
2023-08-13T05:24:21.300Z,22.78
2023-08-13T05:24:53.312Z,22.72
2023-08-13T05:25:53.253Z,22.72
2023-08-13T05:27:14.196Z,22.72
2023-08-13T05:27:53.158Z,22.75
2023-08-13T05:28:53.121Z,22.78
2023-08-13T05:29:53.112Z,22.74
2023-08-13T05:30:53.060Z,22.72
2023-08-13T05:31:52.962Z,22.75
2023-08-13T05:33:13.958Z,22.71
2023-08-13T05:33:52.862Z,22.77
2023-08-13T05:34:52.821Z,22.69
2023-08-13T05:35:52.780Z,22.72
2023-08-13T05:36:52.730Z,22.67
2023-08-13T05:37:52.685Z,22.72
2023-08-13T05:39:13.634Z,22.78
2023-08-13T05:39:52.584Z,22.67
2023-08-13T05:40:52.539Z,22.77
2023-08-13T05:41:52.490Z,22.65
2023-08-13T05:42:52.433Z,22.77
2023-08-13T05:43:52.389Z,22.71
2023-08-13T05:45:13.348Z,22.69
2023-08-13T05:45:52.303Z,22.72
2023-08-13T05:46:52.789Z,22.75
2023-08-13T05:47:52.256Z,22.75
2023-08-13T05:48:52.141Z,22.74
2023-08-13T05:49:52.093Z,22.75
2023-08-13T05:51:13.037Z,22.75
2023-08-13T05:51:51.994Z,22.77
2023-08-13T05:52:51.946Z,22.75
2023-08-13T05:53:51.897Z,22.74
2023-08-13T05:54:51.845Z,22.74
2023-08-13T05:55:51.816Z,22.74
2023-08-13T05:57:12.745Z,22.69
2023-08-13T05:57:51.701Z,22.74
2023-08-13T05:59:27.320Z,22.77
2023-08-13T05:59:51.601Z,22.72
2023-08-13T06:00:51.577Z,22.74
2023-08-13T06:02:13.524Z,22.74
2023-08-13T06:02:51.510Z,22.69
2023-08-13T06:03:51.511Z,22.77
2023-08-13T06:04:51.369Z,22.74
2023-08-13T06:05:51.315Z,22.75
2023-08-13T06:06:51.289Z,22.75
2023-08-13T06:08:12.202Z,22.72
2023-08-13T06:08:51.168Z,22.72
2023-08-13T06:09:51.126Z,22.74
2023-08-13T06:10:51.059Z,22.71
2023-08-13T06:11:51.014Z,22.71
2023-08-13T06:12:50.959Z,22.72
2023-08-13T06:14:11.901Z,22.71
2023-08-13T06:14:50.890Z,22.77
2023-08-13T06:15:50.828Z,22.69
2023-08-13T06:16:55.021Z,22.74
2023-08-13T06:17:50.825Z,22.71
2023-08-13T06:18:50.681Z,22.74
2023-08-13T06:20:12.293Z,22.77
2023-08-13T06:20:50.705Z,22.72
2023-08-13T06:21:50.530Z,22.72
2023-08-13T06:22:50.497Z,22.71
2023-08-13T06:23:50.436Z,22.69
2023-08-13T06:24:50.402Z,22.69
2023-08-13T06:26:12.248Z,22.69
2023-08-13T06:26:50.289Z,22.69
2023-08-13T06:27:50.257Z,22.68
2023-08-13T06:28:50.191Z,22.71
2023-08-13T06:30:08.173Z,22.69
2023-08-13T06:30:50.144Z,22.65
2023-08-13T06:32:11.036Z,22.74
2023-08-13T06:32:50.005Z,22.69
2023-08-13T06:33:49.939Z,22.72
2023-08-13T06:34:49.896Z,22.71
2023-08-13T06:35:49.850Z,22.67
2023-08-13T06:36:49.800Z,22.72
2023-08-13T06:38:10.735Z,22.68
2023-08-13T06:38:49.696Z,22.60
2023-08-13T06:39:49.698Z,22.67
2023-08-13T06:40:49.629Z,22.69
2023-08-13T06:41:49.553Z,22.67
2023-08-13T06:42:49.499Z,22.72
2023-08-13T06:44:10.441Z,22.74
2023-08-13T06:44:49.407Z,22.74
2023-08-13T06:45:49.354Z,22.74
2023-08-13T06:46:49.373Z,22.69
2023-08-13T06:47:49.274Z,22.75
2023-08-13T06:48:49.199Z,22.74
2023-08-13T06:50:10.138Z,22.69
2023-08-13T06:50:49.108Z,22.71
2023-08-13T06:51:49.045Z,22.71
2023-08-13T06:52:49.002Z,22.62
2023-08-13T06:53:48.950Z,22.72
2023-08-13T06:54:48.916Z,22.74
2023-08-13T06:56:09.855Z,22.72
2023-08-13T06:56:48.819Z,22.64
2023-08-13T06:57:48.771Z,22.75
2023-08-13T06:58:48.744Z,22.68
2023-08-13T06:59:48.670Z,22.75
2023-08-13T07:00:48.621Z,22.65
2023-08-13T07:02:10.298Z,22.75
2023-08-13T07:02:48.566Z,22.74
2023-08-13T07:03:48.480Z,22.62
2023-08-13T07:04:48.454Z,22.74
2023-08-13T07:05:48.397Z,22.74
2023-08-13T07:06:48.397Z,22.60
2023-08-13T07:08:09.270Z,22.57
2023-08-13T07:08:48.232Z,22.71
2023-08-13T07:09:48.181Z,22.74
2023-08-13T07:10:48.131Z,22.72
2023-08-13T07:11:48.079Z,22.62
2023-08-13T07:12:48.039Z,22.56
2023-08-13T07:14:08.968Z,22.72
2023-08-13T07:14:47.930Z,22.65
2023-08-13T07:15:47.898Z,22.64
2023-08-13T07:16:47.841Z,22.69
2023-08-13T07:18:23.348Z,22.64
2023-08-13T07:19:08.727Z,22.75
2023-08-13T07:19:47.694Z,22.68
2023-08-13T07:20:47.641Z,22.71
2023-08-13T07:21:47.599Z,22.65
2023-08-13T07:22:47.544Z,22.65
2023-08-13T07:23:47.496Z,22.62
2023-08-13T07:25:08.442Z,22.74
2023-08-13T07:25:48.303Z,22.71
2023-08-13T07:26:47.392Z,22.65
2023-08-13T07:27:47.335Z,22.65
2023-08-13T07:28:47.269Z,22.67
2023-08-13T07:29:47.213Z,22.74
2023-08-13T07:31:08.148Z,22.60
2023-08-13T07:31:47.150Z,22.71
2023-08-13T07:32:47.099Z,22.62
2023-08-13T07:33:47.013Z,22.69
2023-08-13T07:34:46.972Z,22.64
2023-08-13T07:35:46.907Z,22.80
2023-08-13T07:37:07.858Z,22.65
2023-08-13T07:37:46.840Z,22.62
2023-08-13T07:38:46.764Z,22.64
2023-08-13T07:39:46.718Z,22.67
2023-08-13T07:40:46.667Z,22.72
2023-08-13T07:41:46.616Z,22.64
2023-08-13T07:43:07.558Z,22.72
2023-08-13T07:43:46.529Z,22.60
2023-08-13T07:44:46.469Z,22.72
2023-08-13T07:45:46.457Z,22.69
2023-08-13T07:46:53.344Z,22.62
2023-08-13T07:47:47.854Z,22.60
2023-08-13T07:49:07.271Z,22.67
2023-08-13T07:49:46.226Z,22.64
2023-08-13T07:50:46.165Z,22.72
2023-08-13T07:51:46.799Z,22.64
2023-08-13T07:52:46.888Z,22.67
2023-08-13T07:53:46.059Z,22.71
2023-08-13T07:55:07.009Z,22.64
2023-08-13T07:55:45.940Z,22.64
2023-08-13T07:56:45.874Z,22.62
2023-08-13T07:57:45.853Z,22.72
2023-08-13T07:58:45.793Z,22.64
2023-08-13T07:59:45.740Z,22.72
2023-08-13T08:01:06.690Z,22.60
2023-08-13T08:01:45.652Z,22.64
2023-08-13T08:02:45.640Z,22.60
2023-08-13T08:03:45.565Z,22.64
2023-08-13T08:04:45.495Z,22.62
2023-08-13T08:05:45.434Z,22.72
2023-08-13T08:07:06.378Z,22.60
2023-08-13T08:08:45.303Z,22.60
2023-08-13T08:09:45.267Z,22.64
2023-08-13T08:10:45.207Z,22.68
2023-08-13T08:11:45.840Z,22.72
2023-08-13T08:13:06.099Z,22.62
2023-08-13T08:14:06.072Z,22.62
2023-08-13T08:14:45.044Z,22.72
2023-08-13T08:15:45.048Z,22.75
2023-08-13T08:16:44.929Z,22.65
2023-08-13T08:18:05.945Z,22.59
2023-08-13T08:19:05.816Z,22.72
2023-08-13T08:19:44.780Z,22.72
2023-08-13T08:20:44.734Z,22.69
2023-08-13T08:21:44.688Z,22.69
2023-08-13T08:24:16.195Z,22.74
2023-08-13T08:25:16.137Z,22.65
2023-08-13T08:27:09.026Z,22.72
2023-08-13T08:28:08.975Z,22.69
2023-08-13T08:30:01.827Z,22.71
2023-08-13T08:31:01.803Z,22.72
2023-08-13T08:32:54.688Z,22.62
2023-08-13T08:33:54.590Z,22.72
2023-08-13T08:35:47.461Z,22.67
2023-08-13T08:36:47.418Z,22.71
2023-08-13T08:38:40.290Z,22.67
2023-08-13T08:39:40.224Z,22.74
2023-08-13T08:41:33.117Z,22.72
2023-08-13T08:42:33.041Z,22.72
2023-08-13T08:44:25.923Z,22.72
2023-08-13T08:45:25.962Z,22.65
2023-08-13T08:47:18.736Z,22.71
2023-08-13T08:48:18.673Z,22.71
2023-08-13T08:50:19.042Z,22.72
2023-08-13T08:51:18.984Z,22.72
2023-08-13T08:53:11.865Z,22.75
2023-08-13T08:54:11.801Z,22.74
2023-08-13T08:56:04.682Z,22.74
2023-08-13T08:57:04.631Z,22.74
2023-08-13T08:58:57.497Z,22.74
2023-08-13T08:59:57.471Z,22.75
2023-08-13T09:01:50.341Z,22.77
2023-08-13T09:02:50.325Z,22.71
2023-08-13T09:04:43.138Z,22.72
2023-08-13T09:05:43.074Z,22.74
2023-08-13T09:07:35.974Z,22.77
2023-08-13T09:08:35.894Z,22.74
2023-08-13T09:10:28.847Z,22.75
2023-08-13T09:11:28.710Z,22.74
2023-08-13T09:13:21.601Z,22.74
2023-08-13T09:14:21.527Z,22.74
2023-08-13T09:16:14.466Z,22.69
2023-08-13T09:17:14.642Z,22.69
2023-08-13T09:19:13.854Z,22.69
2023-08-13T09:20:07.154Z,22.67
2023-08-13T09:22:00.049Z,22.74
2023-08-13T09:22:59.986Z,22.67
2023-08-13T09:24:52.869Z,22.67
2023-08-13T09:25:52.797Z,22.71
2023-08-13T09:27:45.681Z,22.78
2023-08-13T09:28:45.613Z,22.75
2023-08-13T09:30:38.498Z,22.75
2023-08-13T09:31:38.451Z,22.74
2023-08-13T09:33:31.315Z,22.75
2023-08-13T09:34:31.255Z,22.71
2023-08-13T09:36:24.121Z,22.74
2023-08-13T09:37:24.070Z,22.77
2023-08-13T09:39:16.961Z,22.71
2023-08-13T09:40:16.906Z,22.74
2023-08-13T09:42:09.774Z,22.74
2023-08-13T09:43:09.734Z,22.71
2023-08-13T09:45:02.595Z,22.78
2023-08-13T09:46:02.616Z,22.72
2023-08-13T09:47:55.440Z,22.80
2023-08-13T09:48:55.352Z,22.74
2023-08-13T09:50:48.229Z,22.82
2023-08-13T09:51:48.170Z,22.77
2023-08-13T09:53:41.050Z,22.82
2023-08-13T09:54:40.988Z,22.74
2023-08-13T09:56:33.868Z,22.82
2023-08-13T09:57:33.811Z,22.86
2023-08-13T09:59:26.700Z,22.83
2023-08-13T10:00:26.723Z,22.86
2023-08-13T10:02:19.641Z,22.87
2023-08-13T10:03:19.547Z,22.92
2023-08-13T10:05:12.333Z,22.89
2023-08-13T10:06:12.272Z,22.84
2023-08-13T10:08:05.145Z,22.86
2023-08-13T10:09:05.086Z,22.77
2023-08-13T10:10:57.965Z,22.93
2023-08-13T10:11:57.908Z,22.87
2023-08-13T10:13:50.800Z,22.86
2023-08-13T10:14:50.756Z,22.89
2023-08-13T10:16:43.635Z,22.90
2023-08-13T10:17:43.594Z,22.90
2023-08-13T10:19:36.438Z,22.89
2023-08-13T10:20:36.377Z,22.92
2023-08-13T10:22:29.240Z,22.97
2023-08-13T10:23:29.189Z,22.92
2023-08-13T10:25:22.085Z,22.90
2023-08-13T10:26:22.019Z,22.99
2023-08-13T10:28:14.890Z,22.92
2023-08-13T10:29:14.830Z,22.94
2023-08-13T10:31:07.713Z,22.94
2023-08-13T10:32:07.739Z,22.92
2023-08-13T10:34:00.542Z,22.93
2023-08-13T10:35:00.482Z,23.01
2023-08-13T10:36:53.942Z,22.92
2023-08-13T10:37:53.515Z,22.96
2023-08-13T10:39:46.381Z,22.94
2023-08-13T10:40:46.322Z,22.99
2023-08-13T10:42:39.216Z,23.02
2023-08-13T10:43:39.149Z,22.94
2023-08-13T10:45:32.015Z,22.97
2023-08-13T10:46:31.959Z,22.94
2023-08-13T10:48:24.831Z,23.01
2023-08-13T10:49:24.778Z,22.93
2023-08-13T10:51:17.680Z,22.96
2023-08-13T10:52:17.853Z,22.99
2023-08-13T10:54:10.483Z,22.93
2023-08-13T10:55:10.415Z,23.02
2023-08-13T10:57:03.294Z,22.99
2023-08-13T10:58:03.232Z,22.99
2023-08-13T10:59:56.126Z,22.99
2023-08-13T11:00:56.056Z,23.05
2023-08-13T11:02:48.963Z,23.05
2023-08-13T11:03:49.127Z,23.02
2023-08-13T11:05:41.754Z,23.01
2023-08-13T11:06:41.722Z,23.02
2023-08-13T11:08:46.117Z,23.07
2023-08-13T11:09:34.565Z,23.04
2023-08-13T11:11:27.435Z,23.04
2023-08-13T11:12:27.367Z,23.08
2023-08-13T11:14:20.250Z,23.04
2023-08-13T11:15:20.187Z,23.08
2023-08-13T11:17:13.077Z,23.05
2023-08-13T11:18:12.995Z,23.12
2023-08-13T11:20:05.875Z,23.08
2023-08-13T11:21:05.827Z,23.09
2023-08-13T11:22:58.701Z,23.11
2023-08-13T11:23:58.639Z,23.07
2023-08-13T11:25:51.523Z,23.15
2023-08-13T11:26:51.450Z,23.12
2023-08-13T11:28:44.344Z,23.08
2023-08-13T11:29:44.293Z,23.14
2023-08-13T11:31:38.672Z,23.12
2023-08-13T11:32:38.693Z,23.17
2023-08-13T11:34:31.502Z,23.09
2023-08-13T11:35:31.432Z,23.07
2023-08-13T11:37:24.305Z,23.07
2023-08-13T11:38:24.268Z,23.15
2023-08-13T11:40:17.134Z,23.09
2023-08-13T11:41:17.066Z,23.17
2023-08-13T11:43:09.950Z,23.11
2023-08-13T11:44:09.889Z,23.12
2023-08-13T11:46:02.811Z,23.11
2023-08-13T11:47:02.710Z,23.19
2023-08-13T11:48:55.651Z,23.19
2023-08-13T11:49:55.535Z,23.11
2023-08-13T11:51:48.413Z,23.24
2023-08-13T11:52:48.404Z,23.11
2023-08-13T11:54:41.245Z,23.14
2023-08-13T11:55:41.172Z,23.12
2023-08-13T11:57:34.970Z,23.17
2023-08-13T11:58:34.384Z,23.11
2023-08-13T12:00:27.063Z,23.17
2023-08-13T12:01:27.052Z,23.17
2023-08-13T12:03:19.915Z,23.24
2023-08-13T12:04:19.824Z,23.17
2023-08-13T12:06:12.757Z,23.17
2023-08-13T12:07:12.645Z,23.20
2023-08-13T12:09:05.521Z,23.14
2023-08-13T12:10:05.483Z,23.14
2023-08-13T12:11:58.345Z,23.17
2023-08-13T12:12:58.283Z,23.23
2023-08-13T12:14:53.706Z,23.17
2023-08-13T12:15:51.131Z,23.17
2023-08-13T12:17:44.022Z,23.24
2023-08-13T12:18:43.946Z,23.27
2023-08-13T12:20:36.799Z,23.23
2023-08-13T12:21:36.731Z,23.12
2023-08-13T12:23:37.115Z,23.27
2023-08-13T12:24:37.054Z,23.26
2023-08-13T12:26:29.958Z,23.29
2023-08-13T12:27:29.872Z,23.26
2023-08-13T12:29:22.805Z,23.24
2023-08-13T12:30:22.710Z,23.31
2023-08-13T12:32:15.835Z,23.20
2023-08-13T12:33:15.523Z,23.24
2023-08-13T12:35:08.406Z,23.29
2023-08-13T12:36:08.341Z,23.22
2023-08-13T12:38:01.208Z,23.29
2023-08-13T12:39:01.157Z,23.27
2023-08-13T12:40:54.038Z,23.34
2023-08-13T12:41:54.035Z,23.27
2023-08-13T12:43:46.852Z,23.24
2023-08-13T12:44:46.796Z,23.39
2023-08-13T12:46:39.771Z,23.34
2023-08-13T12:47:39.632Z,23.29
2023-08-13T12:49:32.494Z,23.31
2023-08-13T12:50:32.431Z,23.27
2023-08-13T12:52:25.357Z,23.35
2023-08-13T12:53:25.254Z,23.38
2023-08-13T12:55:18.126Z,23.35
2023-08-13T12:56:18.069Z,23.38
2023-08-13T12:58:10.985Z,23.34
2023-08-13T12:59:10.891Z,23.42
2023-08-13T13:01:03.827Z,23.29
2023-08-13T13:02:03.715Z,23.38
2023-08-13T13:03:56.595Z,23.32
2023-08-13T13:04:56.623Z,23.34
2023-08-13T13:06:49.401Z,23.32
2023-08-13T13:07:49.350Z,23.32
2023-08-13T13:09:42.224Z,23.38
2023-08-13T13:10:42.170Z,23.38
2023-08-13T13:12:35.039Z,23.35
2023-08-13T13:13:34.994Z,23.42
2023-08-13T13:15:27.854Z,23.38
2023-08-13T13:16:27.850Z,23.39
2023-08-13T13:18:20.676Z,23.42
2023-08-13T13:19:20.614Z,23.39
2023-08-13T13:21:13.502Z,23.32
2023-08-13T13:22:13.718Z,23.38
2023-08-13T13:24:06.313Z,23.40
2023-08-13T13:25:06.257Z,23.45
2023-08-13T13:26:59.139Z,23.43
2023-08-13T13:27:59.072Z,23.40
2023-08-13T13:29:51.962Z,23.39
2023-08-13T13:30:51.936Z,23.39
2023-08-13T13:32:44.804Z,23.43
2023-08-13T13:33:44.719Z,23.40
2023-08-13T13:35:37.606Z,23.43
2023-08-13T13:36:37.533Z,23.42
2023-08-13T13:38:37.941Z,23.47
2023-08-13T13:40:53.369Z,23.43
2023-08-13T13:41:53.316Z,23.39
2023-08-13T13:43:46.186Z,23.57
2023-08-13T13:44:46.139Z,23.46
2023-08-13T13:46:39.048Z,23.52
2023-08-13T13:47:39.016Z,23.43
2023-08-13T13:49:31.828Z,23.50
2023-08-13T13:50:31.776Z,23.46
2023-08-13T13:52:24.695Z,23.46
2023-08-13T13:54:37.543Z,23.55
2023-08-13T13:55:37.482Z,23.49
2023-08-13T13:57:30.351Z,23.49
2023-08-13T13:58:30.298Z,23.47
2023-08-13T14:00:23.182Z,23.43
2023-08-13T14:01:23.143Z,23.49
2023-08-13T14:03:16.225Z,23.50
2023-08-13T14:04:16.033Z,23.53
2023-08-13T14:06:08.897Z,23.55
2023-08-13T14:07:08.751Z,23.52
2023-08-13T14:09:01.721Z,23.55
2023-08-13T14:10:01.674Z,23.52
2023-08-13T14:11:54.546Z,23.58
2023-08-13T14:12:54.497Z,23.57
2023-08-13T14:14:47.376Z,23.55
2023-08-13T14:15:47.338Z,23.52
2023-08-13T14:17:40.266Z,23.55
2023-08-13T14:18:40.184Z,23.50
2023-08-13T14:20:32.998Z,23.50
2023-08-13T14:21:32.949Z,23.52
2023-08-13T14:23:25.821Z,23.58
2023-08-13T14:24:25.769Z,23.58
2023-08-13T14:26:18.642Z,23.57
2023-08-13T14:27:18.582Z,23.57
2023-08-13T14:29:11.477Z,23.60
2023-08-13T14:30:11.414Z,23.53
2023-08-13T14:32:04.298Z,23.60
2023-08-13T14:33:04.298Z,23.53
2023-08-13T14:34:57.115Z,23.55
2023-08-13T14:35:57.065Z,23.58
2023-08-13T14:37:49.933Z,23.67
2023-08-13T14:38:49.870Z,23.62
2023-08-13T14:40:42.750Z,23.58
2023-08-13T14:41:42.696Z,23.64
2023-08-13T14:43:35.575Z,23.65
2023-08-13T14:44:35.514Z,23.64
2023-08-13T14:46:28.389Z,23.61
2023-08-13T14:47:28.361Z,23.67
2023-08-13T14:49:21.218Z,23.60
2023-08-13T14:50:21.237Z,23.67
2023-08-13T14:52:14.445Z,23.61
2023-08-13T14:53:13.982Z,23.65
2023-08-13T14:55:06.879Z,23.61
2023-08-13T14:56:06.809Z,23.67
2023-08-13T14:58:00.266Z,23.65